sensor_id;sensor_type;location;lat;lon;timestamp;P1;P2;P0
30342;PMS5003;17145;49.902;8.680;2023-08-17T00:01:42;11;10;
30342;PMS5003;17145;49.902;8.680;2023-08-17T00:04:10;9;9;
30342;PMS5003;17145;49.902;8.680;2023-08-17T00:06:37;10;9;
30342;PMS5003;17145;49.902;8.680;2023-08-17T00:09:04;9;9;
30342;PMS5003;17145;49.902;8.680;2023-08-17T00:11:32;11;11;
30342;PMS5003;17145;49.902;8.680;2023-08-17T00:14:00;8;8;
30342;PMS5003;17145;49.902;8.680;2023-08-17T00:16:27;11;10;
30342;PMS5003;17145;49.902;8.680;2023-08-17T00:18:55;11;11;
30342;PMS5003;17145;49.902;8.680;2023-08-17T00:21:22;11;11;
30342;PMS5003;17145;49.902;8.680;2023-08-17T00:23:49;14;13;
30342;PMS5003;17145;49.902;8.680;2023-08-17T00:26:17;14;14;
30342;PMS5003;17145;49.902;8.680;2023-08-17T00:28:44;14;14;
30342;PMS5003;17145;49.902;8.680;2023-08-17T00:31:12;10;9;
30342;PMS5003;17145;49.902;8.680;2023-08-17T00:33:39;12;12;
30342;PMS5003;17145;49.902;8.680;2023-08-17T00:36:06;13;13;
30342;PMS5003;17145;49.902;8.680;2023-08-17T00:38:34;13;13;
30342;PMS5003;17145;49.902;8.680;2023-08-17T00:41:01;13;13;
30342;PMS5003;17145;49.902;8.680;2023-08-17T00:43:28;17;16;
30342;PMS5003;17145;49.902;8.680;2023-08-17T00:45:56;14;14;
30342;PMS5003;17145;49.902;8.680;2023-08-17T00:48:24;14;14;
30342;PMS5003;17145;49.902;8.680;2023-08-17T00:50:53;12;12;
30342;PMS5003;17145;49.902;8.680;2023-08-17T00:53:22;12;11;
30342;PMS5003;17145;49.902;8.680;2023-08-17T00:55:52;12;12;
30342;PMS5003;17145;49.902;8.680;2023-08-17T00:58:20;16;14;
30342;PMS5003;17145;49.902;8.680;2023-08-17T01:00:48;15;15;
30342;PMS5003;17145;49.902;8.680;2023-08-17T01:03:15;10;10;
30342;PMS5003;17145;49.902;8.680;2023-08-17T01:05:44;13;12;
30342;PMS5003;17145;49.902;8.680;2023-08-17T01:08:11;43;43;
30342;PMS5003;17145;49.902;8.680;2023-08-17T01:10:40;29;28;
30342;PMS5003;17145;49.902;8.680;2023-08-17T01:13:15;17;17;
30342;PMS5003;17145;49.902;8.680;2023-08-17T01:15:49;34;34;
30342;PMS5003;17145;49.902;8.680;2023-08-17T01:18:21;35;35;
30342;PMS5003;17145;49.902;8.680;2023-08-17T01:20:52;34;33;
30342;PMS5003;17145;49.902;8.680;2023-08-17T01:23:20;17;16;
30342;PMS5003;17145;49.902;8.680;2023-08-17T01:25:48;18;18;
30342;PMS5003;17145;49.902;8.680;2023-08-17T01:28:15;13;13;
30342;PMS5003;17145;49.902;8.680;2023-08-17T01:30:44;13;13;
30342;PMS5003;17145;49.902;8.680;2023-08-17T01:33:18;21;21;
30342;PMS5003;17145;49.902;8.680;2023-08-17T01:35:53;16;16;
30342;PMS5003;17145;49.902;8.680;2023-08-17T01:38:27;25;23;
30342;PMS5003;17145;49.902;8.680;2023-08-17T01:40:58;12;11;
30342;PMS5003;17145;49.902;8.680;2023-08-17T01:43:27;12;12;
30342;PMS5003;17145;49.902;8.680;2023-08-17T01:45:55;12;11;
30342;PMS5003;17145;49.902;8.680;2023-08-17T01:48:23;11;11;
30342;PMS5003;17145;49.902;8.680;2023-08-17T01:50:50;12;11;
30342;PMS5003;17145;49.902;8.680;2023-08-17T01:53:17;10;10;
30342;PMS5003;17145;49.902;8.680;2023-08-17T01:55:45;13;12;
30342;PMS5003;17145;49.902;8.680;2023-08-17T01:58:12;13;13;
30342;PMS5003;17145;49.902;8.680;2023-08-17T02:00:39;12;12;
30342;PMS5003;17145;49.902;8.680;2023-08-17T02:03:07;12;12;
30342;PMS5003;17145;49.902;8.680;2023-08-17T02:05:34;12;12;
30342;PMS5003;17145;49.902;8.680;2023-08-17T02:08:02;11;11;
30342;PMS5003;17145;49.902;8.680;2023-08-17T02:10:29;12;12;
30342;PMS5003;17145;49.902;8.680;2023-08-17T02:12:57;11;11;
30342;PMS5003;17145;49.902;8.680;2023-08-17T02:15:24;12;12;
30342;PMS5003;17145;49.902;8.680;2023-08-17T02:17:51;12;11;
30342;PMS5003;17145;49.902;8.680;2023-08-17T02:20:19;12;12;
30342;PMS5003;17145;49.902;8.680;2023-08-17T02:22:46;12;12;
30342;PMS5003;17145;49.902;8.680;2023-08-17T02:25:14;13;13;
30342;PMS5003;17145;49.902;8.680;2023-08-17T02:27:41;11;11;
30342;PMS5003;17145;49.902;8.680;2023-08-17T02:30:09;12;10;
30342;PMS5003;17145;49.902;8.680;2023-08-17T02:32:37;11;10;
30342;PMS5003;17145;49.902;8.680;2023-08-17T02:35:06;10;10;
30342;PMS5003;17145;49.902;8.680;2023-08-17T02:37:34;9;9;
30342;PMS5003;17145;49.902;8.680;2023-08-17T02:40:02;10;10;
30342;PMS5003;17145;49.902;8.680;2023-08-17T02:42:29;10;10;
30342;PMS5003;17145;49.902;8.680;2023-08-17T02:44:56;7;7;
30342;PMS5003;17145;49.902;8.680;2023-08-17T02:47:24;10;10;
30342;PMS5003;17145;49.902;8.680;2023-08-17T02:49:51;11;11;
30342;PMS5003;17145;49.902;8.680;2023-08-17T02:52:18;10;10;
30342;PMS5003;17145;49.902;8.680;2023-08-17T02:54:46;11;10;
30342;PMS5003;17145;49.902;8.680;2023-08-17T02:57:13;8;8;
30342;PMS5003;17145;49.902;8.680;2023-08-17T02:59:40;11;10;
30342;PMS5003;17145;49.902;8.680;2023-08-17T03:02:08;11;10;
30342;PMS5003;17145;49.902;8.680;2023-08-17T03:04:35;12;11;
30342;PMS5003;17145;49.902;8.680;2023-08-17T03:07:03;11;10;
30342;PMS5003;17145;49.902;8.680;2023-08-17T03:09:30;9;9;
30342;PMS5003;17145;49.902;8.680;2023-08-17T03:11:58;12;12;
30342;PMS5003;17145;49.902;8.680;2023-08-17T03:14:25;13;12;
30342;PMS5003;17145;49.902;8.680;2023-08-17T03:16:52;11;11;
30342;PMS5003;17145;49.902;8.680;2023-08-17T03:19:20;14;13;
30342;PMS5003;17145;49.902;8.680;2023-08-17T03:21:47;15;14;
30342;PMS5003;17145;49.902;8.680;2023-08-17T03:24:15;13;13;
30342;PMS5003;17145;49.902;8.680;2023-08-17T03:26:42;15;15;
30342;PMS5003;17145;49.902;8.680;2023-08-17T03:29:10;15;15;
30342;PMS5003;17145;49.902;8.680;2023-08-17T03:31:37;13;13;
30342;PMS5003;17145;49.902;8.680;2023-08-17T03:34:04;13;12;
30342;PMS5003;17145;49.902;8.680;2023-08-17T03:36:32;10;10;
30342;PMS5003;17145;49.902;8.680;2023-08-17T03:38:59;11;11;
30342;PMS5003;17145;49.902;8.680;2023-08-17T03:41:26;10;10;
30342;PMS5003;17145;49.902;8.680;2023-08-17T03:43:54;7;7;
30342;PMS5003;17145;49.902;8.680;2023-08-17T03:46:21;12;11;
30342;PMS5003;17145;49.902;8.680;2023-08-17T03:48:48;12;12;
30342;PMS5003;17145;49.902;8.680;2023-08-17T03:51:15;10;10;
30342;PMS5003;17145;49.902;8.680;2023-08-17T03:53:43;11;11;
30342;PMS5003;17145;49.902;8.680;2023-08-17T03:56:10;13;11;
30342;PMS5003;17145;49.902;8.680;2023-08-17T03:58:37;11;11;
30342;PMS5003;17145;49.902;8.680;2023-08-17T04:01:05;12;12;
30342;PMS5003;17145;49.902;8.680;2023-08-17T04:03:33;11;10;
30342;PMS5003;17145;49.902;8.680;2023-08-17T04:06:04;19;12;
30342;PMS5003;17145;49.902;8.680;2023-08-17T04:08:31;11;11;
30342;PMS5003;17145;49.902;8.680;2023-08-17T04:10:59;11;11;
30342;PMS5003;17145;49.902;8.680;2023-08-17T04:13:26;13;13;
30342;PMS5003;17145;49.902;8.680;2023-08-17T04:15:54;11;11;
30342;PMS5003;17145;49.902;8.680;2023-08-17T04:18:21;13;13;
30342;PMS5003;17145;49.902;8.680;2023-08-17T04:20:48;10;10;
30342;PMS5003;17145;49.902;8.680;2023-08-17T04:23:16;11;10;
30342;PMS5003;17145;49.902;8.680;2023-08-17T04:25:44;11;11;
30342;PMS5003;17145;49.902;8.680;2023-08-17T04:28:13;12;12;
30342;PMS5003;17145;49.902;8.680;2023-08-17T04:30:40;12;12;
30342;PMS5003;17145;49.902;8.680;2023-08-17T04:33:08;10;9;
30342;PMS5003;17145;49.902;8.680;2023-08-17T04:35:36;13;13;
30342;PMS5003;17145;49.902;8.680;2023-08-17T04:38:03;17;17;
30342;PMS5003;17145;49.902;8.680;2023-08-17T04:40:30;12;12;
30342;PMS5003;17145;49.902;8.680;2023-08-17T04:42:58;11;11;
30342;PMS5003;17145;49.902;8.680;2023-08-17T04:45:25;10;10;
30342;PMS5003;17145;49.902;8.680;2023-08-17T04:47:53;12;11;
30342;PMS5003;17145;49.902;8.680;2023-08-17T04:50:20;13;12;
30342;PMS5003;17145;49.902;8.680;2023-08-17T04:52:47;17;16;
30342;PMS5003;17145;49.902;8.680;2023-08-17T04:55:15;44;43;
30342;PMS5003;17145;49.902;8.680;2023-08-17T04:57:42;60;59;
30342;PMS5003;17145;49.902;8.680;2023-08-17T05:00:10;52;52;
30342;PMS5003;17145;49.902;8.680;2023-08-17T05:02:38;72;71;
30342;PMS5003;17145;49.902;8.680;2023-08-17T05:05:06;177;177;
30342;PMS5003;17145;49.902;8.680;2023-08-17T05:07:36;118;118;
30342;PMS5003;17145;49.902;8.680;2023-08-17T05:10:04;186;185;
30342;PMS5003;17145;49.902;8.680;2023-08-17T05:12:32;154;154;
30342;PMS5003;17145;49.902;8.680;2023-08-17T05:14:59;49;47;
30342;PMS5003;17145;49.902;8.680;2023-08-17T05:17:27;108;108;
30342;PMS5003;17145;49.902;8.680;2023-08-17T05:19:54;100;99;
30342;PMS5003;17145;49.902;8.680;2023-08-17T05:22:21;20;14;
30342;PMS5003;17145;49.902;8.680;2023-08-17T05:24:49;96;95;
30342;PMS5003;17145;49.902;8.680;2023-08-17T05:27:16;115;115;
30342;PMS5003;17145;49.902;8.680;2023-08-17T05:29:43;67;67;
30342;PMS5003;17145;49.902;8.680;2023-08-17T05:32:11;20;20;
30342;PMS5003;17145;49.902;8.680;2023-08-17T05:34:38;12;11;
30342;PMS5003;17145;49.902;8.680;2023-08-17T05:37:06;14;14;
30342;PMS5003;17145;49.902;8.680;2023-08-17T05:39:33;10;10;
30342;PMS5003;17145;49.902;8.680;2023-08-17T05:42:00;10;10;
30342;PMS5003;17145;49.902;8.680;2023-08-17T05:44:28;28;27;
30342;PMS5003;17145;49.902;8.680;2023-08-17T05:46:55;11;10;
30342;PMS5003;17145;49.902;8.680;2023-08-17T05:49:22;12;11;
30342;PMS5003;17145;49.902;8.680;2023-08-17T05:51:50;9;8;
30342;PMS5003;17145;49.902;8.680;2023-08-17T05:54:17;27;26;
30342;PMS5003;17145;49.902;8.680;2023-08-17T05:56:45;30;29;
30342;PMS5003;17145;49.902;8.680;2023-08-17T05:59:12;13;10;
30342;PMS5003;17145;49.902;8.680;2023-08-17T06:01:40;9;9;
30342;PMS5003;17145;49.902;8.680;2023-08-17T06:04:07;8;8;
30342;PMS5003;17145;49.902;8.680;2023-08-17T06:06:35;11;11;
30342;PMS5003;17145;49.902;8.680;2023-08-17T06:09:02;10;10;
30342;PMS5003;17145;49.902;8.680;2023-08-17T06:11:30;12;11;
30342;PMS5003;17145;49.902;8.680;2023-08-17T06:13:57;9;9;
30342;PMS5003;17145;49.902;8.680;2023-08-17T06:16:25;10;10;
30342;PMS5003;17145;49.902;8.680;2023-08-17T06:18:52;9;9;
30342;PMS5003;17145;49.902;8.680;2023-08-17T06:21:20;9;9;
30342;PMS5003;17145;49.902;8.680;2023-08-17T06:23:47;11;10;
30342;PMS5003;17145;49.902;8.680;2023-08-17T06:26:15;11;11;
30342;PMS5003;17145;49.902;8.680;2023-08-17T06:28:42;11;10;
30342;PMS5003;17145;49.902;8.680;2023-08-17T06:31:14;11;10;
30342;PMS5003;17145;49.902;8.680;2023-08-17T06:33:41;12;11;
30342;PMS5003;17145;49.902;8.680;2023-08-17T06:36:09;10;10;
30342;PMS5003;17145;49.902;8.680;2023-08-17T06:38:36;17;15;
30342;PMS5003;17145;49.902;8.680;2023-08-17T06:41:04;11;11;
30342;PMS5003;17145;49.902;8.680;2023-08-17T06:43:31;13;12;
30342;PMS5003;17145;49.902;8.680;2023-08-17T06:45:59;16;16;
30342;PMS5003;17145;49.902;8.680;2023-08-17T06:48:26;12;12;
30342;PMS5003;17145;49.902;8.680;2023-08-17T06:50:54;10;10;
30342;PMS5003;17145;49.902;8.680;2023-08-17T06:53:21;11;11;
30342;PMS5003;17145;49.902;8.680;2023-08-17T06:55:48;12;12;
30342;PMS5003;17145;49.902;8.680;2023-08-17T06:58:16;13;13;
30342;PMS5003;17145;49.902;8.680;2023-08-17T07:00:43;17;17;
30342;PMS5003;17145;49.902;8.680;2023-08-17T07:03:10;18;18;
30342;PMS5003;17145;49.902;8.680;2023-08-17T07:05:38;14;14;
30342;PMS5003;17145;49.902;8.680;2023-08-17T07:08:05;11;11;
30342;PMS5003;17145;49.902;8.680;2023-08-17T07:10:33;12;12;
30342;PMS5003;17145;49.902;8.680;2023-08-17T07:13:00;12;12;
30342;PMS5003;17145;49.902;8.680;2023-08-17T07:15:28;42;42;
30342;PMS5003;17145;49.902;8.680;2023-08-17T07:17:55;68;68;
30342;PMS5003;17145;49.902;8.680;2023-08-17T07:20:23;19;15;
30342;PMS5003;17145;49.902;8.680;2023-08-17T07:22:50;19;14;
30342;PMS5003;17145;49.902;8.680;2023-08-17T07:25:18;29;26;
30342;PMS5003;17145;49.902;8.680;2023-08-17T07:27:45;38;32;
30342;PMS5003;17145;49.902;8.680;2023-08-17T07:30:13;55;49;
30342;PMS5003;17145;49.902;8.680;2023-08-17T07:32:40;51;46;
30342;PMS5003;17145;49.902;8.680;2023-08-17T07:35:08;30;25;
30342;PMS5003;17145;49.902;8.680;2023-08-17T07:37:35;24;17;
30342;PMS5003;17145;49.902;8.680;2023-08-17T07:40:03;32;25;
30342;PMS5003;17145;49.902;8.680;2023-08-17T07:42:31;28;23;
30342;PMS5003;17145;49.902;8.680;2023-08-17T07:44:58;29;23;
30342;PMS5003;17145;49.902;8.680;2023-08-17T07:47:25;32;27;
30342;PMS5003;17145;49.902;8.680;2023-08-17T07:49:53;26;20;
30342;PMS5003;17145;49.902;8.680;2023-08-17T07:52:20;27;21;
30342;PMS5003;17145;49.902;8.680;2023-08-17T07:54:48;36;28;
30342;PMS5003;17145;49.902;8.680;2023-08-17T07:57:15;33;26;
30342;PMS5003;17145;49.902;8.680;2023-08-17T07:59:43;40;32;
30342;PMS5003;17145;49.902;8.680;2023-08-17T08:02:10;19;14;
30342;PMS5003;17145;49.902;8.680;2023-08-17T08:04:37;14;12;
30342;PMS5003;17145;49.902;8.680;2023-08-17T08:07:05;13;13;
30342;PMS5003;17145;49.902;8.680;2023-08-17T08:09:32;13;12;
30342;PMS5003;17145;49.902;8.680;2023-08-17T08:12:00;13;13;
30342;PMS5003;17145;49.902;8.680;2023-08-17T08:14:27;19;16;
30342;PMS5003;17145;49.902;8.680;2023-08-17T08:16:55;13;13;
30342;PMS5003;17145;49.902;8.680;2023-08-17T08:19:22;14;14;
30342;PMS5003;17145;49.902;8.680;2023-08-17T08:21:50;13;12;
30342;PMS5003;17145;49.902;8.680;2023-08-17T08:24:17;13;13;
30342;PMS5003;17145;49.902;8.680;2023-08-17T08:26:45;15;14;
30342;PMS5003;17145;49.902;8.680;2023-08-17T08:29:12;14;14;
30342;PMS5003;17145;49.902;8.680;2023-08-17T08:31:39;13;12;
30342;PMS5003;17145;49.902;8.680;2023-08-17T08:34:07;12;11;
30342;PMS5003;17145;49.902;8.680;2023-08-17T08:36:34;13;13;
30342;PMS5003;17145;49.902;8.680;2023-08-17T08:39:01;14;14;
30342;PMS5003;17145;49.902;8.680;2023-08-17T08:41:29;14;14;
30342;PMS5003;17145;49.902;8.680;2023-08-17T08:43:57;14;14;
30342;PMS5003;17145;49.902;8.680;2023-08-17T08:46:24;11;11;
30342;PMS5003;17145;49.902;8.680;2023-08-17T08:48:56;13;13;
30342;PMS5003;17145;49.902;8.680;2023-08-17T08:51:27;15;14;
30342;PMS5003;17145;49.902;8.680;2023-08-17T08:53:59;13;13;
30342;PMS5003;17145;49.902;8.680;2023-08-17T08:56:28;12;12;
30342;PMS5003;17145;49.902;8.680;2023-08-17T08:58:58;14;13;
30342;PMS5003;17145;49.902;8.680;2023-08-17T09:01:29;14;13;
30342;PMS5003;17145;49.902;8.680;2023-08-17T09:03:58;19;17;
30342;PMS5003;17145;49.902;8.680;2023-08-17T09:06:26;14;12;
30342;PMS5003;17145;49.902;8.680;2023-08-17T09:08:56;15;13;
30342;PMS5003;17145;49.902;8.680;2023-08-17T09:11:24;13;13;
30342;PMS5003;17145;49.902;8.680;2023-08-17T09:13:52;15;15;
30342;PMS5003;17145;49.902;8.680;2023-08-17T09:16:20;14;14;
30342;PMS5003;17145;49.902;8.680;2023-08-17T09:18:47;12;12;
30342;PMS5003;17145;49.902;8.680;2023-08-17T09:21:20;16;14;
30342;PMS5003;17145;49.902;8.680;2023-08-17T09:23:51;13;13;
30342;PMS5003;17145;49.902;8.680;2023-08-17T09:26:20;13;13;
30342;PMS5003;17145;49.902;8.680;2023-08-17T09:28:48;14;14;
30342;PMS5003;17145;49.902;8.680;2023-08-17T09:31:16;13;13;
30342;PMS5003;17145;49.902;8.680;2023-08-17T09:33:48;15;15;
30342;PMS5003;17145;49.902;8.680;2023-08-17T09:36:19;13;12;
30342;PMS5003;17145;49.902;8.680;2023-08-17T09:38:47;16;14;
30342;PMS5003;17145;49.902;8.680;2023-08-17T09:41:15;13;13;
30342;PMS5003;17145;49.902;8.680;2023-08-17T09:43:43;17;15;
30342;PMS5003;17145;49.902;8.680;2023-08-17T09:46:11;15;15;
30342;PMS5003;17145;49.902;8.680;2023-08-17T09:48:38;15;13;
30342;PMS5003;17145;49.902;8.680;2023-08-17T09:51:06;15;14;
30342;PMS5003;17145;49.902;8.680;2023-08-17T09:53:34;14;14;
30342;PMS5003;17145;49.902;8.680;2023-08-17T09:56:03;14;13;
30342;PMS5003;17145;49.902;8.680;2023-08-17T09:58:31;14;14;
30342;PMS5003;17145;49.902;8.680;2023-08-17T10:00:59;14;14;
30342;PMS5003;17145;49.902;8.680;2023-08-17T10:03:30;13;13;
30342;PMS5003;17145;49.902;8.680;2023-08-17T10:06:04;15;14;
30342;PMS5003;17145;49.902;8.680;2023-08-17T10:08:33;16;16;
30342;PMS5003;17145;49.902;8.680;2023-08-17T10:11:06;15;14;
30342;PMS5003;17145;49.902;8.680;2023-08-17T10:13:35;14;14;
30342;PMS5003;17145;49.902;8.680;2023-08-17T10:16:08;15;15;
30342;PMS5003;17145;49.902;8.680;2023-08-17T10:18:42;14;14;
30342;PMS5003;17145;49.902;8.680;2023-08-17T10:21:17;15;15;
30342;PMS5003;17145;49.902;8.680;2023-08-17T10:23:49;16;15;
30342;PMS5003;17145;49.902;8.680;2023-08-17T10:26:17;13;13;
30342;PMS5003;17145;49.902;8.680;2023-08-17T10:28:45;15;15;
30342;PMS5003;17145;49.902;8.680;2023-08-17T10:31:13;14;14;
30342;PMS5003;17145;49.902;8.680;2023-08-17T10:33:41;15;15;
30342;PMS5003;17145;49.902;8.680;2023-08-17T10:36:09;14;14;
30342;PMS5003;17145;49.902;8.680;2023-08-17T10:38:39;15;15;
30342;PMS5003;17145;49.902;8.680;2023-08-17T10:41:08;17;17;
30342;PMS5003;17145;49.902;8.680;2023-08-17T10:46:14;15;14;
30342;PMS5003;17145;49.902;8.680;2023-08-17T10:48:43;22;17;
30342;PMS5003;17145;49.902;8.680;2023-08-17T10:51:11;19;19;
30342;PMS5003;17145;49.902;8.680;2023-08-17T10:53:38;15;15;
30342;PMS5003;17145;49.902;8.680;2023-08-17T10:56:11;16;16;
30342;PMS5003;17145;49.902;8.680;2023-08-17T10:58:40;21;20;
30342;PMS5003;17145;49.902;8.680;2023-08-17T11:01:09;25;24;
30342;PMS5003;17145;49.902;8.680;2023-08-17T11:03:37;27;27;
30342;PMS5003;17145;49.902;8.680;2023-08-17T11:11:19;22;22;
30342;PMS5003;17145;49.902;8.680;2023-08-17T11:13:48;24;24;
30342;PMS5003;17145;49.902;8.680;2023-08-17T11:16:16;27;27;
30342;PMS5003;17145;49.902;8.680;2023-08-17T11:18:44;28;26;
30342;PMS5003;17145;49.902;8.680;2023-08-17T11:21:12;28;28;
30342;PMS5003;17145;49.902;8.680;2023-08-17T11:23:40;34;33;
30342;PMS5003;17145;49.902;8.680;2023-08-17T11:26:08;38;38;
30342;PMS5003;17145;49.902;8.680;2023-08-17T11:28:36;45;44;
30342;PMS5003;17145;49.902;8.680;2023-08-17T11:31:05;39;39;
30342;PMS5003;17145;49.902;8.680;2023-08-17T11:33:34;39;38;
30342;PMS5003;17145;49.902;8.680;2023-08-17T11:36:04;31;31;
30342;PMS5003;17145;49.902;8.680;2023-08-17T11:38:34;16;16;
30342;PMS5003;17145;49.902;8.680;2023-08-17T11:41:03;17;16;
30342;PMS5003;17145;49.902;8.680;2023-08-17T11:43:31;15;15;
30342;PMS5003;17145;49.902;8.680;2023-08-17T11:46:00;15;15;
30342;PMS5003;17145;49.902;8.680;2023-08-17T11:48:28;18;17;
30342;PMS5003;17145;49.902;8.680;2023-08-17T11:50:56;18;18;
30342;PMS5003;17145;49.902;8.680;2023-08-17T11:53:24;23;22;
30342;PMS5003;17145;49.902;8.680;2023-08-17T11:55:51;22;22;
30342;PMS5003;17145;49.902;8.680;2023-08-17T11:58:31;30;30;
30342;PMS5003;17145;49.902;8.680;2023-08-17T12:00:57;19;18;
30342;PMS5003;17145;49.902;8.680;2023-08-17T12:03:25;18;17;
30342;PMS5003;17145;49.902;8.680;2023-08-17T12:05:53;17;17;
30342;PMS5003;17145;49.902;8.680;2023-08-17T12:08:21;20;19;
30342;PMS5003;17145;49.902;8.680;2023-08-17T12:10:49;16;16;
30342;PMS5003;17145;49.902;8.680;2023-08-17T12:13:19;18;18;
30342;PMS5003;17145;49.902;8.680;2023-08-17T12:15:52;18;18;
30342;PMS5003;17145;49.902;8.680;2023-08-17T12:18:20;19;16;
30342;PMS5003;17145;49.902;8.680;2023-08-17T12:20:52;17;16;
30342;PMS5003;17145;49.902;8.680;2023-08-17T12:23:19;16;16;
30342;PMS5003;17145;49.902;8.680;2023-08-17T12:25:51;19;17;
30342;PMS5003;17145;49.902;8.680;2023-08-17T12:28:19;24;22;
30342;PMS5003;17145;49.902;8.680;2023-08-17T12:30:47;17;17;
30342;PMS5003;17145;49.902;8.680;2023-08-17T12:33:19;19;18;
30342;PMS5003;17145;49.902;8.680;2023-08-17T12:35:47;18;18;
30342;PMS5003;17145;49.902;8.680;2023-08-17T12:38:14;17;17;
30342;PMS5003;17145;49.902;8.680;2023-08-17T12:40:41;18;16;
30342;PMS5003;17145;49.902;8.680;2023-08-17T12:43:09;17;15;
30342;PMS5003;17145;49.902;8.680;2023-08-17T12:45:36;16;15;
30342;PMS5003;17145;49.902;8.680;2023-08-17T12:48:04;18;17;
30342;PMS5003;17145;49.902;8.680;2023-08-17T12:50:32;18;18;
30342;PMS5003;17145;49.902;8.680;2023-08-17T12:52:59;16;16;
30342;PMS5003;17145;49.902;8.680;2023-08-17T12:55:27;17;17;
30342;PMS5003;17145;49.902;8.680;2023-08-17T12:57:54;18;16;
30342;PMS5003;17145;49.902;8.680;2023-08-17T13:00:22;20;16;
30342;PMS5003;17145;49.902;8.680;2023-08-17T13:02:49;19;17;
30342;PMS5003;17145;49.902;8.680;2023-08-17T13:05:16;19;19;
30342;PMS5003;17145;49.902;8.680;2023-08-17T13:07:44;18;18;
30342;PMS5003;17145;49.902;8.680;2023-08-17T13:10:11;18;18;
30342;PMS5003;17145;49.902;8.680;2023-08-17T13:12:39;21;19;
30342;PMS5003;17145;49.902;8.680;2023-08-17T13:15:07;18;18;
30342;PMS5003;17145;49.902;8.680;2023-08-17T13:17:34;19;19;
30342;PMS5003;17145;49.902;8.680;2023-08-17T13:20:02;21;20;
30342;PMS5003;17145;49.902;8.680;2023-08-17T13:22:29;20;20;
30342;PMS5003;17145;49.902;8.680;2023-08-17T13:24:57;19;19;
30342;PMS5003;17145;49.902;8.680;2023-08-17T13:27:24;21;21;
30342;PMS5003;17145;49.902;8.680;2023-08-17T13:29:52;22;21;
30342;PMS5003;17145;49.902;8.680;2023-08-17T13:32:19;20;19;
30342;PMS5003;17145;49.902;8.680;2023-08-17T13:34:46;22;21;
30342;PMS5003;17145;49.902;8.680;2023-08-17T13:37:13;22;22;
30342;PMS5003;17145;49.902;8.680;2023-08-17T13:39:41;19;19;
30342;PMS5003;17145;49.902;8.680;2023-08-17T13:42:09;22;20;
30342;PMS5003;17145;49.902;8.680;2023-08-17T13:44:36;19;19;
30342;PMS5003;17145;49.902;8.680;2023-08-17T13:47:05;21;21;
30342;PMS5003;17145;49.902;8.680;2023-08-17T13:49:32;25;22;
30342;PMS5003;17145;49.902;8.680;2023-08-17T13:52:00;19;19;
30342;PMS5003;17145;49.902;8.680;2023-08-17T13:54:27;19;19;
30342;PMS5003;17145;49.902;8.680;2023-08-17T13:56:54;20;20;
30342;PMS5003;17145;49.902;8.680;2023-08-17T13:59:22;22;21;
30342;PMS5003;17145;49.902;8.680;2023-08-17T14:01:49;21;21;
30342;PMS5003;17145;49.902;8.680;2023-08-17T14:04:16;21;21;
30342;PMS5003;17145;49.902;8.680;2023-08-17T14:06:44;21;21;
30342;PMS5003;17145;49.902;8.680;2023-08-17T14:09:11;20;20;
30342;PMS5003;17145;49.902;8.680;2023-08-17T14:11:38;19;19;
30342;PMS5003;17145;49.902;8.680;2023-08-17T14:14:06;23;21;
30342;PMS5003;17145;49.902;8.680;2023-08-17T14:16:33;20;19;
30342;PMS5003;17145;49.902;8.680;2023-08-17T14:19:00;19;19;
30342;PMS5003;17145;49.902;8.680;2023-08-17T14:21:28;20;20;
30342;PMS5003;17145;49.902;8.680;2023-08-17T14:23:55;16;16;
30342;PMS5003;17145;49.902;8.680;2023-08-17T14:26:22;19;19;
30342;PMS5003;17145;49.902;8.680;2023-08-17T14:28:50;21;20;
30342;PMS5003;17145;49.902;8.680;2023-08-17T14:31:17;20;18;
30342;PMS5003;17145;49.902;8.680;2023-08-17T14:33:44;19;18;
30342;PMS5003;17145;49.902;8.680;2023-08-17T14:36:12;19;18;
30342;PMS5003;17145;49.902;8.680;2023-08-17T14:38:39;19;19;
30342;PMS5003;17145;49.902;8.680;2023-08-17T14:41:07;19;19;
30342;PMS5003;17145;49.902;8.680;2023-08-17T14:43:35;17;17;
30342;PMS5003;17145;49.902;8.680;2023-08-17T14:46:02;20;19;
30342;PMS5003;17145;49.902;8.680;2023-08-17T14:48:29;17;17;
30342;PMS5003;17145;49.902;8.680;2023-08-17T14:50:57;20;20;
30342;PMS5003;17145;49.902;8.680;2023-08-17T14:53:24;18;18;
30342;PMS5003;17145;49.902;8.680;2023-08-17T14:55:52;21;20;
30342;PMS5003;17145;49.902;8.680;2023-08-17T14:58:19;19;18;
30342;PMS5003;17145;49.902;8.680;2023-08-17T15:00:47;20;19;
30342;PMS5003;17145;49.902;8.680;2023-08-17T15:03:14;18;18;
30342;PMS5003;17145;49.902;8.680;2023-08-17T15:05:41;16;16;
30342;PMS5003;17145;49.902;8.680;2023-08-17T15:08:09;18;18;
30342;PMS5003;17145;49.902;8.680;2023-08-17T15:10:36;20;19;
30342;PMS5003;17145;49.902;8.680;2023-08-17T15:13:04;19;19;
30342;PMS5003;17145;49.902;8.680;2023-08-17T15:15:31;17;17;
30342;PMS5003;17145;49.902;8.680;2023-08-17T15:17:58;20;20;
30342;PMS5003;17145;49.902;8.680;2023-08-17T15:20:26;19;19;
30342;PMS5003;17145;49.902;8.680;2023-08-17T15:22:53;21;19;
30342;PMS5003;17145;49.902;8.680;2023-08-17T15:25:21;21;20;
30342;PMS5003;17145;49.902;8.680;2023-08-17T15:27:48;19;19;
30342;PMS5003;17145;49.902;8.680;2023-08-17T15:30:16;18;18;
30342;PMS5003;17145;49.902;8.680;2023-08-17T15:32:44;20;20;
30342;PMS5003;17145;49.902;8.680;2023-08-17T15:35:11;28;23;
30342;PMS5003;17145;49.902;8.680;2023-08-17T15:37:39;20;18;
30342;PMS5003;17145;49.902;8.680;2023-08-17T15:40:06;25;24;
30342;PMS5003;17145;49.902;8.680;2023-08-17T15:42:34;26;26;
30342;PMS5003;17145;49.902;8.680;2023-08-17T15:45:02;24;24;
30342;PMS5003;17145;49.902;8.680;2023-08-17T15:47:29;24;24;
30342;PMS5003;17145;49.902;8.680;2023-08-17T15:49:57;24;23;
30342;PMS5003;17145;49.902;8.680;2023-08-17T15:52:24;27;26;
30342;PMS5003;17145;49.902;8.680;2023-08-17T15:54:51;26;24;
30342;PMS5003;17145;49.902;8.680;2023-08-17T15:57:19;24;24;
30342;PMS5003;17145;49.902;8.680;2023-08-17T15:59:46;29;24;
30342;PMS5003;17145;49.902;8.680;2023-08-17T16:02:13;24;24;
30342;PMS5003;17145;49.902;8.680;2023-08-17T16:04:41;24;24;
30342;PMS5003;17145;49.902;8.680;2023-08-17T16:07:08;25;24;
30342;PMS5003;17145;49.902;8.680;2023-08-17T16:09:37;22;22;
30342;PMS5003;17145;49.902;8.680;2023-08-17T16:12:05;34;24;
30342;PMS5003;17145;49.902;8.680;2023-08-17T16:14:32;25;22;
30342;PMS5003;17145;49.902;8.680;2023-08-17T16:17:00;23;22;
30342;PMS5003;17145;49.902;8.680;2023-08-17T16:19:27;24;23;
30342;PMS5003;17145;49.902;8.680;2023-08-17T16:21:55;29;23;
30342;PMS5003;17145;49.902;8.680;2023-08-17T16:24:22;25;24;
30342;PMS5003;17145;49.902;8.680;2023-08-17T16:26:49;23;23;
30342;PMS5003;17145;49.902;8.680;2023-08-17T16:29:17;21;21;
30342;PMS5003;17145;49.902;8.680;2023-08-17T16:31:45;26;25;